sensor_id;sensor_type;location;lat;lon;timestamp;P1;durP1;ratioP1;P2;durP2;ratioP2
8909;SDS011;4490;49.072;8.804;2023-06-01T00:00:43;3.13;;;2.83;;
8909;SDS011;4490;49.072;8.804;2023-06-01T00:03:09;5.17;;;2.60;;
8909;SDS011;4490;49.072;8.804;2023-06-01T00:05:35;3.13;;;2.60;;
8909;SDS011;4490;49.072;8.804;2023-06-01T00:08:01;4.77;;;3.00;;
8909;SDS011;4490;49.072;8.804;2023-06-01T00:10:29;4.87;;;2.50;;
8909;SDS011;4490;49.072;8.804;2023-06-01T00:12:55;5.50;;;3.13;;
8909;SDS011;4490;49.072;8.804;2023-06-01T00:15:20;5.67;;;2.60;;
8909;SDS011;4490;49.072;8.804;2023-06-01T00:17:46;3.63;;;2.60;;
8909;SDS011;4490;49.072;8.804;2023-06-01T00:20:16;4.27;;;2.70;;
8909;SDS011;4490;49.072;8.804;2023-06-01T00:22:43;6.07;;;2.87;;
8909;SDS011;4490;49.072;8.804;2023-06-01T00:25:09;4.57;;;2.90;;
8909;SDS011;4490;49.072;8.804;2023-06-01T00:27:35;5.83;;;2.87;;
8909;SDS011;4490;49.072;8.804;2023-06-01T00:30:01;4.00;;;2.40;;
8909;SDS011;4490;49.072;8.804;2023-06-01T00:32:27;4.60;;;2.60;;
8909;SDS011;4490;49.072;8.804;2023-06-01T00:34:53;5.77;;;2.47;;
8909;SDS011;4490;49.072;8.804;2023-06-01T00:37:18;6.73;;;2.53;;
8909;SDS011;4490;49.072;8.804;2023-06-01T00:39:44;5.33;;;2.50;;
8909;SDS011;4490;49.072;8.804;2023-06-01T00:42:09;4.50;;;2.70;;
8909;SDS011;4490;49.072;8.804;2023-06-01T00:44:35;5.63;;;2.67;;
8909;SDS011;4490;49.072;8.804;2023-06-01T00:47:01;4.20;;;2.80;;
8909;SDS011;4490;49.072;8.804;2023-06-01T00:49:26;4.53;;;2.70;;
8909;SDS011;4490;49.072;8.804;2023-06-01T00:51:52;3.40;;;2.40;;
8909;SDS011;4490;49.072;8.804;2023-06-01T00:54:19;6.10;;;2.57;;
8909;SDS011;4490;49.072;8.804;2023-06-01T00:56:45;5.17;;;2.40;;
8909;SDS011;4490;49.072;8.804;2023-06-01T00:59:11;5.50;;;2.53;;
8909;SDS011;4490;49.072;8.804;2023-06-01T01:01:37;5.23;;;2.80;;
8909;SDS011;4490;49.072;8.804;2023-06-01T01:04:03;3.57;;;2.47;;
8909;SDS011;4490;49.072;8.804;2023-06-01T01:09:53;4.83;;;3.07;;
8909;SDS011;4490;49.072;8.804;2023-06-01T01:12:35;3.63;;;3.13;;
8909;SDS011;4490;49.072;8.804;2023-06-01T01:15:07;6.40;;;2.73;;
8909;SDS011;4490;49.072;8.804;2023-06-01T01:17:53;3.37;;;2.80;;
8909;SDS011;4490;49.072;8.804;2023-06-01T01:20:28;6.40;;;2.63;;
8909;SDS011;4490;49.072;8.804;2023-06-01T01:29:06;4.53;;;3.00;;
8909;SDS011;4490;49.072;8.804;2023-06-01T01:31:34;3.93;;;2.80;;
8909;SDS011;4490;49.072;8.804;2023-06-01T01:34:02;5.53;;;3.20;;
8909;SDS011;4490;49.072;8.804;2023-06-01T01:36:29;5.13;;;3.00;;
8909;SDS011;4490;49.072;8.804;2023-06-01T01:38:55;7.00;;;3.40;;
8909;SDS011;4490;49.072;8.804;2023-06-01T01:41:21;6.37;;;3.10;;
8909;SDS011;4490;49.072;8.804;2023-06-01T01:43:50;4.20;;;2.87;;
8909;SDS011;4490;49.072;8.804;2023-06-01T01:46:36;4.50;;;3.37;;
8909;SDS011;4490;49.072;8.804;2023-06-01T01:49:20;6.00;;;3.27;;
8909;SDS011;4490;49.072;8.804;2023-06-01T01:54:29;4.90;;;2.90;;
8909;SDS011;4490;49.072;8.804;2023-06-01T01:56:57;5.73;;;3.27;;
8909;SDS011;4490;49.072;8.804;2023-06-01T01:59:25;4.10;;;2.60;;
8909;SDS011;4490;49.072;8.804;2023-06-01T02:01:52;5.70;;;3.27;;
8909;SDS011;4490;49.072;8.804;2023-06-01T02:04:18;6.63;;;3.20;;
8909;SDS011;4490;49.072;8.804;2023-06-01T02:06:43;5.47;;;3.10;;
8909;SDS011;4490;49.072;8.804;2023-06-01T02:09:09;4.37;;;2.63;;
8909;SDS011;4490;49.072;8.804;2023-06-01T02:11:35;4.73;;;2.80;;
8909;SDS011;4490;49.072;8.804;2023-06-01T02:14:01;5.47;;;3.13;;
8909;SDS011;4490;49.072;8.804;2023-06-01T02:16:26;5.93;;;3.03;;
8909;SDS011;4490;49.072;8.804;2023-06-01T02:18:52;5.00;;;3.30;;
8909;SDS011;4490;49.072;8.804;2023-06-01T02:21:18;3.67;;;2.67;;
8909;SDS011;4490;49.072;8.804;2023-06-01T02:23:44;6.43;;;2.70;;
8909;SDS011;4490;49.072;8.804;2023-06-01T02:26:10;5.13;;;2.80;;
8909;SDS011;4490;49.072;8.804;2023-06-01T02:28:36;3.67;;;2.77;;
8909;SDS011;4490;49.072;8.804;2023-06-01T02:31:03;3.83;;;2.83;;
8909;SDS011;4490;49.072;8.804;2023-06-01T02:33:30;5.57;;;3.17;;
8909;SDS011;4490;49.072;8.804;2023-06-01T02:35:56;7.20;;;3.00;;
8909;SDS011;4490;49.072;8.804;2023-06-01T02:38:22;5.03;;;2.87;;
8909;SDS011;4490;49.072;8.804;2023-06-01T02:40:47;4.50;;;3.10;;
8909;SDS011;4490;49.072;8.804;2023-06-01T02:43:13;7.33;;;3.23;;
8909;SDS011;4490;49.072;8.804;2023-06-01T02:45:39;4.17;;;2.93;;
8909;SDS011;4490;49.072;8.804;2023-06-01T02:48:04;4.30;;;3.10;;
8909;SDS011;4490;49.072;8.804;2023-06-01T02:50:30;4.50;;;3.10;;
8909;SDS011;4490;49.072;8.804;2023-06-01T02:52:56;4.73;;;3.20;;
8909;SDS011;4490;49.072;8.804;2023-06-01T02:55:21;7.07;;;3.27;;
8909;SDS011;4490;49.072;8.804;2023-06-01T02:57:47;4.17;;;3.20;;
8909;SDS011;4490;49.072;8.804;2023-06-01T03:00:13;5.03;;;3.17;;
8909;SDS011;4490;49.072;8.804;2023-06-01T03:02:42;6.33;;;3.30;;
8909;SDS011;4490;49.072;8.804;2023-06-01T03:05:08;5.57;;;3.00;;
8909;SDS011;4490;49.072;8.804;2023-06-01T03:07:34;4.37;;;3.07;;
8909;SDS011;4490;49.072;8.804;2023-06-01T03:10:00;5.13;;;3.37;;
8909;SDS011;4490;49.072;8.804;2023-06-01T03:12:26;4.37;;;3.20;;
8909;SDS011;4490;49.072;8.804;2023-06-01T03:14:51;3.73;;;3.07;;
8909;SDS011;4490;49.072;8.804;2023-06-01T03:17:17;4.37;;;3.00;;
8909;SDS011;4490;49.072;8.804;2023-06-01T03:19:42;4.10;;;3.10;;
8909;SDS011;4490;49.072;8.804;2023-06-01T03:22:08;4.50;;;3.30;;
8909;SDS011;4490;49.072;8.804;2023-06-01T03:24:33;4.77;;;3.07;;
8909;SDS011;4490;49.072;8.804;2023-06-01T03:26:59;3.83;;;3.10;;
8909;SDS011;4490;49.072;8.804;2023-06-01T03:29:26;5.97;;;3.43;;
8909;SDS011;4490;49.072;8.804;2023-06-01T03:31:51;5.30;;;2.97;;
8909;SDS011;4490;49.072;8.804;2023-06-01T03:34:17;6.03;;;3.30;;
8909;SDS011;4490;49.072;8.804;2023-06-01T03:36:43;4.63;;;3.20;;
8909;SDS011;4490;49.072;8.804;2023-06-01T03:39:13;3.93;;;2.80;;
8909;SDS011;4490;49.072;8.804;2023-06-01T03:41:42;5.27;;;3.40;;
8909;SDS011;4490;49.072;8.804;2023-06-01T03:44:11;4.23;;;2.80;;
8909;SDS011;4490;49.072;8.804;2023-06-01T03:46:38;9.40;;;3.30;;
8909;SDS011;4490;49.072;8.804;2023-06-01T03:49:04;5.30;;;3.43;;
8909;SDS011;4490;49.072;8.804;2023-06-01T03:51:30;5.07;;;3.53;;
8909;SDS011;4490;49.072;8.804;2023-06-01T03:53:56;5.07;;;3.27;;
8909;SDS011;4490;49.072;8.804;2023-06-01T03:56:22;6.50;;;4.17;;
8909;SDS011;4490;49.072;8.804;2023-06-01T03:58:47;5.23;;;4.17;;
8909;SDS011;4490;49.072;8.804;2023-06-01T04:01:13;7.13;;;3.97;;
8909;SDS011;4490;49.072;8.804;2023-06-01T04:03:45;4.50;;;3.20;;
8909;SDS011;4490;49.072;8.804;2023-06-01T04:06:11;5.57;;;3.67;;
8909;SDS011;4490;49.072;8.804;2023-06-01T04:08:42;5.77;;;3.47;;
8909;SDS011;4490;49.072;8.804;2023-06-01T04:11:14;4.90;;;3.87;;
8909;SDS011;4490;49.072;8.804;2023-06-01T04:13:40;5.10;;;3.40;;
8909;SDS011;4490;49.072;8.804;2023-06-01T04:16:06;7.63;;;3.90;;
8909;SDS011;4490;49.072;8.804;2023-06-01T04:18:31;7.03;;;3.73;;
8909;SDS011;4490;49.072;8.804;2023-06-01T04:20:57;3.87;;;3.30;;
8909;SDS011;4490;49.072;8.804;2023-06-01T04:23:23;3.77;;;3.27;;
8909;SDS011;4490;49.072;8.804;2023-06-01T04:25:48;6.53;;;3.60;;
8909;SDS011;4490;49.072;8.804;2023-06-01T04:28:17;5.80;;;3.33;;
8909;SDS011;4490;49.072;8.804;2023-06-01T04:30:43;5.23;;;3.70;;
8909;SDS011;4490;49.072;8.804;2023-06-01T04:33:16;6.70;;;3.93;;
8909;SDS011;4490;49.072;8.804;2023-06-01T04:35:42;5.80;;;4.10;;
8909;SDS011;4490;49.072;8.804;2023-06-01T04:38:08;5.33;;;3.90;;
8909;SDS011;4490;49.072;8.804;2023-06-01T04:40:34;5.03;;;3.67;;
8909;SDS011;4490;49.072;8.804;2023-06-01T04:43:00;6.10;;;3.60;;
8909;SDS011;4490;49.072;8.804;2023-06-01T04:45:28;7.30;;;3.50;;
8909;SDS011;4490;49.072;8.804;2023-06-01T04:47:58;5.40;;;3.73;;
8909;SDS011;4490;49.072;8.804;2023-06-01T04:50:24;5.53;;;4.00;;
8909;SDS011;4490;49.072;8.804;2023-06-01T04:52:53;7.60;;;3.73;;
8909;SDS011;4490;49.072;8.804;2023-06-01T04:55:20;6.23;;;4.00;;
8909;SDS011;4490;49.072;8.804;2023-06-01T04:57:45;8.13;;;4.10;;
8909;SDS011;4490;49.072;8.804;2023-06-01T05:00:12;5.57;;;3.60;;
8909;SDS011;4490;49.072;8.804;2023-06-01T05:02:40;7.93;;;4.00;;
8909;SDS011;4490;49.072;8.804;2023-06-01T05:05:07;6.07;;;4.07;;
8909;SDS011;4490;49.072;8.804;2023-06-01T05:07:33;8.63;;;3.90;;
8909;SDS011;4490;49.072;8.804;2023-06-01T05:10:01;6.17;;;4.10;;
8909;SDS011;4490;49.072;8.804;2023-06-01T05:12:30;6.17;;;4.33;;
8909;SDS011;4490;49.072;8.804;2023-06-01T05:14:56;5.57;;;3.70;;
8909;SDS011;4490;49.072;8.804;2023-06-01T05:17:22;6.07;;;4.27;;
8909;SDS011;4490;49.072;8.804;2023-06-01T05:19:48;8.77;;;3.93;;
8909;SDS011;4490;49.072;8.804;2023-06-01T05:22:13;6.97;;;4.20;;
8909;SDS011;4490;49.072;8.804;2023-06-01T05:24:39;5.67;;;3.90;;
8909;SDS011;4490;49.072;8.804;2023-06-01T05:27:05;4.40;;;3.87;;
8909;SDS011;4490;49.072;8.804;2023-06-01T05:29:31;5.63;;;3.37;;
8909;SDS011;4490;49.072;8.804;2023-06-01T05:31:57;6.53;;;3.90;;
8909;SDS011;4490;49.072;8.804;2023-06-01T05:34:22;6.73;;;3.70;;
8909;SDS011;4490;49.072;8.804;2023-06-01T05:36:48;4.87;;;3.53;;
8909;SDS011;4490;49.072;8.804;2023-06-01T05:39:14;5.83;;;3.43;;
8909;SDS011;4490;49.072;8.804;2023-06-01T05:41:40;4.87;;;3.57;;
8909;SDS011;4490;49.072;8.804;2023-06-01T05:44:06;5.17;;;3.60;;
8909;SDS011;4490;49.072;8.804;2023-06-01T05:46:32;5.47;;;3.77;;
8909;SDS011;4490;49.072;8.804;2023-06-01T05:48:57;5.27;;;3.60;;
8909;SDS011;4490;49.072;8.804;2023-06-01T05:51:23;7.87;;;3.90;;
8909;SDS011;4490;49.072;8.804;2023-06-01T05:53:48;5.37;;;4.03;;
8909;SDS011;4490;49.072;8.804;2023-06-01T05:56:14;8.43;;;3.70;;
8909;SDS011;4490;49.072;8.804;2023-06-01T05:58:41;6.70;;;3.43;;
8909;SDS011;4490;49.072;8.804;2023-06-01T06:01:07;5.20;;;3.33;;
8909;SDS011;4490;49.072;8.804;2023-06-01T06:03:34;6.17;;;3.47;;
8909;SDS011;4490;49.072;8.804;2023-06-01T06:06:00;5.57;;;3.40;;
8909;SDS011;4490;49.072;8.804;2023-06-01T06:08:25;7.33;;;3.57;;
8909;SDS011;4490;49.072;8.804;2023-06-01T06:10:52;7.93;;;3.93;;
8909;SDS011;4490;49.072;8.804;2023-06-01T06:13:18;9.10;;;3.70;;
8909;SDS011;4490;49.072;8.804;2023-06-01T06:15:43;10.17;;;3.87;;
8909;SDS011;4490;49.072;8.804;2023-06-01T06:18:09;6.63;;;3.67;;
8909;SDS011;4490;49.072;8.804;2023-06-01T06:20:35;8.40;;;4.00;;
8909;SDS011;4490;49.072;8.804;2023-06-01T06:23:01;6.27;;;3.77;;
8909;SDS011;4490;49.072;8.804;2023-06-01T06:25:26;10.47;;;3.60;;
8909;SDS011;4490;49.072;8.804;2023-06-01T06:27:52;6.90;;;3.37;;
8909;SDS011;4490;49.072;8.804;2023-06-01T06:30:18;4.73;;;3.20;;
8909;SDS011;4490;49.072;8.804;2023-06-01T06:32:43;5.57;;;3.40;;
8909;SDS011;4490;49.072;8.804;2023-06-01T06:35:09;8.60;;;3.30;;
8909;SDS011;4490;49.072;8.804;2023-06-01T06:37:41;5.97;;;3.27;;
8909;SDS011;4490;49.072;8.804;2023-06-01T06:40:08;8.30;;;2.93;;
8909;SDS011;4490;49.072;8.804;2023-06-01T06:42:34;5.13;;;2.83;;
8909;SDS011;4490;49.072;8.804;2023-06-01T06:45:00;3.77;;;2.70;;
8909;SDS011;4490;49.072;8.804;2023-06-01T06:47:27;6.30;;;3.10;;
8909;SDS011;4490;49.072;8.804;2023-06-01T06:49:53;5.10;;;2.87;;
8909;SDS011;4490;49.072;8.804;2023-06-01T06:52:18;6.50;;;3.17;;
8909;SDS011;4490;49.072;8.804;2023-06-01T06:54:44;4.00;;;2.70;;
8909;SDS011;4490;49.072;8.804;2023-06-01T06:57:10;4.57;;;2.80;;
8909;SDS011;4490;49.072;8.804;2023-06-01T06:59:36;5.60;;;3.40;;
8909;SDS011;4490;49.072;8.804;2023-06-01T07:02:02;4.47;;;3.00;;
8909;SDS011;4490;49.072;8.804;2023-06-01T07:04:28;5.07;;;2.90;;
8909;SDS011;4490;49.072;8.804;2023-06-01T07:06:54;5.13;;;3.17;;
8909;SDS011;4490;49.072;8.804;2023-06-01T07:09:20;6.57;;;3.40;;
8909;SDS011;4490;49.072;8.804;2023-06-01T07:11:46;5.03;;;3.00;;
8909;SDS011;4490;49.072;8.804;2023-06-01T07:14:13;4.47;;;3.00;;
8909;SDS011;4490;49.072;8.804;2023-06-01T07:16:39;5.27;;;2.97;;
8909;SDS011;4490;49.072;8.804;2023-06-01T07:19:05;5.03;;;2.73;;
8909;SDS011;4490;49.072;8.804;2023-06-01T07:21:31;4.13;;;3.20;;
8909;SDS011;4490;49.072;8.804;2023-06-01T07:23:58;5.03;;;2.80;;
8909;SDS011;4490;49.072;8.804;2023-06-01T07:26:25;5.27;;;3.10;;
8909;SDS011;4490;49.072;8.804;2023-06-01T07:28:51;4.57;;;2.90;;
8909;SDS011;4490;49.072;8.804;2023-06-01T07:31:19;5.83;;;3.07;;
8909;SDS011;4490;49.072;8.804;2023-06-01T07:33:45;4.50;;;3.10;;
8909;SDS011;4490;49.072;8.804;2023-06-01T07:36:10;3.50;;;2.50;;
8909;SDS011;4490;49.072;8.804;2023-06-01T07:38:37;5.63;;;3.72;;
8909;SDS011;4490;49.072;8.804;2023-06-01T07:41:03;4.60;;;3.30;;
8909;SDS011;4490;49.072;8.804;2023-06-01T07:43:28;3.20;;;2.70;;
8909;SDS011;4490;49.072;8.804;2023-06-01T07:45:54;4.00;;;3.00;;
8909;SDS011;4490;49.072;8.804;2023-06-01T07:48:20;5.82;;;3.00;;
8909;SDS011;4490;49.072;8.804;2023-06-01T07:50:46;6.78;;;3.20;;
8909;SDS011;4490;49.072;8.804;2023-06-01T07:53:12;6.13;;;2.85;;
8909;SDS011;4490;49.072;8.804;2023-06-01T07:55:38;5.30;;;3.20;;
8909;SDS011;4490;49.072;8.804;2023-06-01T07:58:04;7.78;;;3.35;;
8909;SDS011;4490;49.072;8.804;2023-06-01T08:00:30;4.45;;;3.20;;
8909;SDS011;4490;49.072;8.804;2023-06-01T08:02:56;5.32;;;3.20;;
8909;SDS011;4490;49.072;8.804;2023-06-01T08:05:24;3.42;;;3.10;;
8909;SDS011;4490;49.072;8.804;2023-06-01T08:07:49;5.68;;;3.28;;
8909;SDS011;4490;49.072;8.804;2023-06-01T08:10:15;7.53;;;3.38;;
8909;SDS011;4490;49.072;8.804;2023-06-01T08:12:41;5.50;;;3.05;;
8909;SDS011;4490;49.072;8.804;2023-06-01T08:15:08;4.60;;;3.20;;
8909;SDS011;4490;49.072;8.804;2023-06-01T08:17:36;4.35;;;3.22;;
8909;SDS011;4490;49.072;8.804;2023-06-01T08:20:02;5.40;;;3.47;;
8909;SDS011;4490;49.072;8.804;2023-06-01T08:22:34;4.55;;;3.42;;
8909;SDS011;4490;49.072;8.804;2023-06-01T08:25:00;6.40;;;3.40;;
8909;SDS011;4490;49.072;8.804;2023-06-01T08:27:25;9.32;;;3.25;;
8909;SDS011;4490;49.072;8.804;2023-06-01T08:29:53;4.78;;;3.15;;
8909;SDS011;4490;49.072;8.804;2023-06-01T08:32:18;4.80;;;3.40;;
8909;SDS011;4490;49.072;8.804;2023-06-01T08:34:44;4.13;;;2.97;;
8909;SDS011;4490;49.072;8.804;2023-06-01T08:37:11;5.43;;;3.08;;
8909;SDS011;4490;49.072;8.804;2023-06-01T08:39:38;4.80;;;3.33;;
8909;SDS011;4490;49.072;8.804;2023-06-01T08:44:39;5.47;;;3.60;;
8909;SDS011;4490;49.072;8.804;2023-06-01T08:47:06;5.88;;;3.67;;
8909;SDS011;4490;49.072;8.804;2023-06-01T08:49:32;4.75;;;3.17;;
8909;SDS011;4490;49.072;8.804;2023-06-01T08:52:03;6.65;;;3.78;;
8909;SDS011;4490;49.072;8.804;2023-06-01T08:54:32;6.72;;;3.45;;
8909;SDS011;4490;49.072;8.804;2023-06-01T08:57:03;7.15;;;3.40;;
8909;SDS011;4490;49.072;8.804;2023-06-01T08:59:29;4.68;;;3.63;;
8909;SDS011;4490;49.072;8.804;2023-06-01T09:01:57;4.20;;;3.65;;
8909;SDS011;4490;49.072;8.804;2023-06-01T09:04:23;8.00;;;3.80;;
8909;SDS011;4490;49.072;8.804;2023-06-01T09:06:49;4.32;;;3.30;;
8909;SDS011;4490;49.072;8.804;2023-06-01T09:09:14;5.70;;;3.45;;
8909;SDS011;4490;49.072;8.804;2023-06-01T09:11:40;5.22;;;3.40;;
8909;SDS011;4490;49.072;8.804;2023-06-01T09:14:22;6.93;;;3.60;;
8909;SDS011;4490;49.072;8.804;2023-06-01T09:16:49;7.20;;;3.65;;
8909;SDS011;4490;49.072;8.804;2023-06-01T09:19:15;5.25;;;3.80;;
8909;SDS011;4490;49.072;8.804;2023-06-01T09:21:56;6.00;;;3.30;;
8909;SDS011;4490;49.072;8.804;2023-06-01T09:24:22;6.32;;;3.70;;
8909;SDS011;4490;49.072;8.804;2023-06-01T09:26:48;5.13;;;3.83;;
8909;SDS011;4490;49.072;8.804;2023-06-01T09:29:14;5.57;;;3.80;;
8909;SDS011;4490;49.072;8.804;2023-06-01T09:31:41;8.80;;;3.95;;
8909;SDS011;4490;49.072;8.804;2023-06-01T09:34:14;4.43;;;3.70;;
8909;SDS011;4490;49.072;8.804;2023-06-01T09:36:43;4.55;;;3.72;;
8909;SDS011;4490;49.072;8.804;2023-06-01T09:39:10;5.18;;;3.78;;
8909;SDS011;4490;49.072;8.804;2023-06-01T09:41:53;5.30;;;3.60;;
8909;SDS011;4490;49.072;8.804;2023-06-01T09:44:30;5.88;;;3.80;;
8909;SDS011;4490;49.072;8.804;2023-06-01T09:47:00;5.88;;;4.00;;
8909;SDS011;4490;49.072;8.804;2023-06-01T09:49:28;6.93;;;3.70;;
8909;SDS011;4490;49.072;8.804;2023-06-01T09:57:00;5.30;;;4.72;;
8909;SDS011;4490;49.072;8.804;2023-06-01T09:59:28;7.97;;;4.25;;
8909;SDS011;4490;49.072;8.804;2023-06-01T10:01:58;7.43;;;4.45;;
8909;SDS011;4490;49.072;8.804;2023-06-01T10:04:24;5.70;;;4.35;;
8909;SDS011;4490;49.072;8.804;2023-06-01T10:06:52;4.85;;;4.35;;
8909;SDS011;4490;49.072;8.804;2023-06-01T10:09:19;5.15;;;4.50;;
8909;SDS011;4490;49.072;8.804;2023-06-01T10:11:46;7.53;;;4.32;;
8909;SDS011;4490;49.072;8.804;2023-06-01T10:14:14;5.10;;;4.60;;
8909;SDS011;4490;49.072;8.804;2023-06-01T10:16:41;6.30;;;4.53;;
8909;SDS011;4490;49.072;8.804;2023-06-01T10:19:07;8.45;;;4.45;;
8909;SDS011;4490;49.072;8.804;2023-06-01T10:21:34;6.72;;;4.72;;
8909;SDS011;4490;49.072;8.804;2023-06-01T10:24:00;4.97;;;4.32;;
8909;SDS011;4490;49.072;8.804;2023-06-01T10:26:27;6.95;;;4.50;;
8909;SDS011;4490;49.072;8.804;2023-06-01T10:28:55;5.43;;;4.30;;
8909;SDS011;4490;49.072;8.804;2023-06-01T10:31:38;5.93;;;4.70;;
8909;SDS011;4490;49.072;8.804;2023-06-01T10:34:06;4.93;;;4.00;;
8909;SDS011;4490;49.072;8.804;2023-06-01T10:41:49;4.72;;;4.28;;
8909;SDS011;4490;49.072;8.804;2023-06-01T10:52:35;5.10;;;3.80;;
8909;SDS011;4490;49.072;8.804;2023-06-01T10:57:32;5.38;;;3.67;;
8909;SDS011;4490;49.072;8.804;2023-06-01T11:05:43;4.38;;;3.42;;
8909;SDS011;4490;49.072;8.804;2023-06-01T11:13:24;3.83;;;3.20;;
8909;SDS011;4490;49.072;8.804;2023-06-01T11:21:24;3.78;;;3.40;;
8909;SDS011;4490;49.072;8.804;2023-06-01T11:23:54;4.75;;;3.45;;
8909;SDS011;4490;49.072;8.804;2023-06-01T11:26:22;6.40;;;3.92;;
8909;SDS011;4490;49.072;8.804;2023-06-01T11:29:16;5.25;;;3.38;;
8909;SDS011;4490;49.072;8.804;2023-06-01T11:31:51;4.18;;;3.50;;
8909;SDS011;4490;49.072;8.804;2023-06-01T11:34:19;4.93;;;3.33;;
8909;SDS011;4490;49.072;8.804;2023-06-01T11:36:50;4.55;;;3.90;;
8909;SDS011;4490;49.072;8.804;2023-06-01T11:39:23;6.60;;;3.75;;
8909;SDS011;4490;49.072;8.804;2023-06-01T11:42:02;4.88;;;3.60;;
8909;SDS011;4490;49.072;8.804;2023-06-01T11:44:30;5.75;;;3.45;;
8909;SDS011;4490;49.072;8.804;2023-06-01T11:46:56;5.38;;;3.67;;
8909;SDS011;4490;49.072;8.804;2023-06-01T11:49:24;3.92;;;3.53;;
8909;SDS011;4490;49.072;8.804;2023-06-01T11:51:50;4.20;;;3.58;;
8909;SDS011;4490;49.072;8.804;2023-06-01T11:54:16;4.95;;;3.40;;
8909;SDS011;4490;49.072;8.804;2023-06-01T11:56:53;6.32;;;3.45;;
8909;SDS011;4490;49.072;8.804;2023-06-01T11:59:20;3.78;;;3.33;;
8909;SDS011;4490;49.072;8.804;2023-06-01T12:01:46;6.72;;;3.47;;
8909;SDS011;4490;49.072;8.804;2023-06-01T12:04:17;3.58;;;3.28;;
8909;SDS011;4490;49.072;8.804;2023-06-01T12:06:43;5.93;;;3.60;;
8909;SDS011;4490;49.072;8.804;2023-06-01T12:09:10;3.78;;;3.35;;
8909;SDS011;4490;49.072;8.804;2023-06-01T12:11:37;7.70;;;3.75;;
8909;SDS011;4490;49.072;8.804;2023-06-01T12:14:03;5.15;;;3.53;;
8909;SDS011;4490;49.072;8.804;2023-06-01T12:19:19;4.90;;;3.10;;
8909;SDS011;4490;49.072;8.804;2023-06-01T12:21:50;3.55;;;3.00;;
8909;SDS011;4490;49.072;8.804;2023-06-01T12:24:38;4.45;;;3.03;;
8909;SDS011;4490;49.072;8.804;2023-06-01T12:27:12;3.10;;;2.67;;
8909;SDS011;4490;49.072;8.804;2023-06-01T12:29:40;4.05;;;2.90;;
8909;SDS011;4490;49.072;8.804;2023-06-01T12:32:07;3.40;;;3.10;;
8909;SDS011;4490;49.072;8.804;2023-06-01T12:34:37;4.55;;;3.53;;
8909;SDS011;4490;49.072;8.804;2023-06-01T12:37:37;4.57;;;3.20;;
8909;SDS011;4490;49.072;8.804;2023-06-01T12:39:56;4.10;;;3.20;;
8909;SDS011;4490;49.072;8.804;2023-06-01T12:42:37;3.47;;;3.17;;
8909;SDS011;4490;49.072;8.804;2023-06-01T12:45:04;4.55;;;3.00;;
8909;SDS011;4490;49.072;8.804;2023-06-01T12:47:38;4.22;;;3.28;;
8909;SDS011;4490;49.072;8.804;2023-06-01T12:50:05;6.32;;;3.33;;
8909;SDS011;4490;49.072;8.804;2023-06-01T12:52:33;5.75;;;2.97;;
8909;SDS011;4490;49.072;8.804;2023-06-01T12:54:59;4.63;;;3.15;;
8909;SDS011;4490;49.072;8.804;2023-06-01T12:57:25;4.15;;;3.10;;
8909;SDS011;4490;49.072;8.804;2023-06-01T12:59:50;4.68;;;3.08;;
8909;SDS011;4490;49.072;8.804;2023-06-01T13:02:16;4.68;;;3.10;;
8909;SDS011;4490;49.072;8.804;2023-06-01T13:04:42;4.55;;;2.95;;
8909;SDS011;4490;49.072;8.804;2023-06-01T13:07:08;4.80;;;2.80;;
8909;SDS011;4490;49.072;8.804;2023-06-01T13:09:34;3.80;;;2.90;;
8909;SDS011;4490;49.072;8.804;2023-06-01T13:12:00;4.72;;;2.80;;
8909;SDS011;4490;49.072;8.804;2023-06-01T13:14:28;5.68;;;3.20;;
8909;SDS011;4490;49.072;8.804;2023-06-01T13:16:54;3.10;;;2.80;;
8909;SDS011;4490;49.072;8.804;2023-06-01T13:19:20;5.20;;;2.70;;
8909;SDS011;4490;49.072;8.804;2023-06-01T13:21:46;4.85;;;3.60;;
8909;SDS011;4490;49.072;8.804;2023-06-01T13:24:12;4.72;;;3.17;;
8909;SDS011;4490;49.072;8.804;2023-06-01T13:26:38;3.55;;;3.08;;
8909;SDS011;4490;49.072;8.804;2023-06-01T13:29:03;3.17;;;2.80;;
8909;SDS011;4490;49.072;8.804;2023-06-01T13:31:31;5.93;;;3.05;;
8909;SDS011;4490;49.072;8.804;2023-06-01T13:33:58;3.80;;;2.92;;
8909;SDS011;4490;49.072;8.804;2023-06-01T13:36:23;3.63;;;2.90;;
8909;SDS011;4490;49.072;8.804;2023-06-01T13:38:49;4.20;;;2.65;;
8909;SDS011;4490;49.072;8.804;2023-06-01T13:41:15;5.57;;;3.10;;
8909;SDS011;4490;49.072;8.804;2023-06-01T13:43:40;4.32;;;3.00;;
8909;SDS011;4490;49.072;8.804;2023-06-01T13:46:06;4.30;;;2.88;;
8909;SDS011;4490;49.072;8.804;2023-06-01T13:48:34;12.60;;;3.17;;
8909;SDS011;4490;49.072;8.804;2023-06-01T13:51:00;4.82;;;3.45;;
8909;SDS011;4490;49.072;8.804;2023-06-01T13:53:26;3.35;;;3.00;;
8909;SDS011;4490;49.072;8.804;2023-06-01T13:55:52;4.75;;;2.97;;
8909;SDS011;4490;49.072;8.804;2023-06-01T13:58:17;3.42;;;3.08;;
8909;SDS011;4490;49.072;8.804;2023-06-01T14:00:43;5.18;;;2.97;;
8909;SDS011;4490;49.072;8.804;2023-06-01T14:03:09;4.85;;;3.20;;
8909;SDS011;4490;49.072;8.804;2023-06-01T14:05:35;4.07;;;2.78;;
8909;SDS011;4490;49.072;8.804;2023-06-01T14:08:00;5.65;;;2.95;;
8909;SDS011;4490;49.072;8.804;2023-06-01T14:10:27;3.38;;;3.03;;
8909;SDS011;4490;49.072;8.804;2023-06-01T14:12:53;6.20;;;3.80;;
8909;SDS011;4490;49.072;8.804;2023-06-01T14:15:18;3.97;;;2.90;;
8909;SDS011;4490;49.072;8.804;2023-06-01T14:17:44;5.80;;;3.33;;
8909;SDS011;4490;49.072;8.804;2023-06-01T14:20:09;5.43;;;3.03;;
8909;SDS011;4490;49.072;8.804;2023-06-01T14:22:35;4.03;;;3.10;;
8909;SDS011;4490;49.072;8.804;2023-06-01T14:25:01;3.05;;;2.70;;
8909;SDS011;4490;49.072;8.804;2023-06-01T14:27:27;4.57;;;3.20;;
8909;SDS011;4490;49.072;8.804;2023-06-01T14:29:53;4.95;;;3.20;;
8909;SDS011;4490;49.072;8.804;2023-06-01T14:32:19;3.35;;;2.83;;
8909;SDS011;4490;49.072;8.804;2023-06-01T14:34:44;4.82;;;2.97;;
8909;SDS011;4490;49.072;8.804;2023-06-01T14:37:10;4.03;;;2.80;;
8909;SDS011;4490;49.072;8.804;2023-06-01T14:39:37;3.28;;;2.95;;
8909;SDS011;4490;49.072;8.804;2023-06-01T14:42:03;5.28;;;2.67;;
8909;SDS011;4490;49.072;8.804;2023-06-01T14:44:29;4.72;;;3.28;;
8909;SDS011;4490;49.072;8.804;2023-06-01T14:46:55;3.20;;;2.90;;
8909;SDS011;4490;49.072;8.804;2023-06-01T14:49:20;2.92;;;2.70;;
8909;SDS011;4490;49.072;8.804;2023-06-01T14:51:46;2.85;;;2.65;;
8909;SDS011;4490;49.072;8.804;2023-06-01T14:54:11;4.03;;;2.80;;
8909;SDS011;4490;49.072;8.804;2023-06-01T14:56:37;6.18;;;3.10;;
8909;SDS011;4490;49.072;8.804;2023-06-01T14:59:03;4.28;;;2.97;;
8909;SDS011;4490;49.072;8.804;2023-06-01T15:01:28;3.53;;;2.70;;
8909;SDS011;4490;49.072;8.804;2023-06-01T15:03:54;3.88;;;2.88;;
8909;SDS011;4490;49.072;8.804;2023-06-01T15:06:20;3.35;;;3.00;;
8909;SDS011;4490;49.072;8.804;2023-06-01T15:08:45;6.28;;;3.00;;
8909;SDS011;4490;49.072;8.804;2023-06-01T15:11:11;3.13;;;2.80;;
8909;SDS011;4490;49.072;8.804;2023-06-01T15:13:36;5.65;;;3.15;;
8909;SDS011;4490;49.072;8.804;2023-06-01T15:16:03;5.63;;;3.20;;
8909;SDS011;4490;49.072;8.804;2023-06-01T15:18:29;6.90;;;3.10;;
8909;SDS011;4490;49.072;8.804;2023-06-01T15:20:55;4.85;;;2.90;;
8909;SDS011;4490;49.072;8.804;2023-06-01T15:23:22;6.18;;;3.22;;
8909;SDS011;4490;49.072;8.804;2023-06-01T15:25:48;5.45;;;3.05;;
8909;SDS011;4490;49.072;8.804;2023-06-01T15:28:13;6.57;;;3.38;;
8909;SDS011;4490;49.072;8.804;2023-06-01T15:30:39;5.97;;;2.83;;
8909;SDS011;4490;49.072;8.804;2023-06-01T15:33:05;3.63;;;3.22;;
8909;SDS011;4490;49.072;8.804;2023-06-01T15:35:30;4.35;;;3.25;;
8909;SDS011;4490;49.072;8.804;2023-06-01T15:37:56;4.90;;;2.95;;
8909;SDS011;4490;49.072;8.804;2023-06-01T15:40:21;3.83;;;3.05;;
8909;SDS011;4490;49.072;8.804;2023-06-01T15:42:47;5.53;;;2.85;;
8909;SDS011;4490;49.072;8.804;2023-06-01T15:45:12;6.95;;;3.00;;
8909;SDS011;4490;49.072;8.804;2023-06-01T15:47:38;4.13;;;2.88;;
8909;SDS011;4490;49.072;8.804;2023-06-01T15:50:04;4.35;;;3.10;;
8909;SDS011;4490;49.072;8.804;2023-06-01T15:52:30;5.88;;;3.08;;
8909;SDS011;4490;49.072;8.804;2023-06-01T15:54:56;3.47;;;3.03;;
8909;SDS011;4490;49.072;8.804;2023-06-01T15:57:22;5.53;;;3.50;;
8909;SDS011;4490;49.072;8.804;2023-06-01T15:59:47;3.55;;;3.00;;
8909;SDS011;4490;49.072;8.804;2023-06-01T16:02:13;5.18;;;3.60;;
8909;SDS011;4490;49.072;8.804;2023-06-01T16:04:38;5.82;;;3.28;;
8909;SDS011;4490;49.072;8.804;2023-06-01T16:07:04;4.80;;;3.42;;
8909;SDS011;4490;49.072;8.804;2023-06-01T16:09:32;9.40;;;3.30;;